Terminal Aerodrome Forecast
Issued by NWS

Home | Current Version | Previous Version | Text Only | Print | Product List | Glossary On
Versions: 1 2 3 4 5 6 7 8 9 10 11 12 13 14 15 16 17 18 19 20 21 22 23 24 25 26 27 28 29
088
FTUS43 KAPX 290531
TAFPLN
TAF
KPLN 290531Z 2906/3006 00000KT P6SM BKN150 WS015/19035KT
     FM291100 19004KT P6SM BKN150
     FM291500 21008KT P6SM SCT060
     FM291700 21012G20KT P6SM BKN060
     FM291800 21013G22KT P6SM VCSH BKN060
     FM292300 24010G19KT P6SM VCSH BKN040
     FM300300 25006KT P6SM SHRA BKN025
     FM300400 25006KT P6SM SHRA BKN025=

USA.gov is the U.S. government's official web portal to all federal, state and local government web resources and services.